sensor_id;sensor_type;location;lat;lon;timestamp;temperature;humidity
17202;DHT22;8717;53.588;10.176;2023-03-23T00:00:56;10.20;99.90
17202;DHT22;8717;53.588;10.176;2023-03-23T00:03:22;10.20;99.90
17202;DHT22;8717;53.588;10.176;2023-03-23T00:05:51;10.20;99.90
17202;DHT22;8717;53.588;10.176;2023-03-23T00:08:19;10.10;99.90
17202;DHT22;8717;53.588;10.176;2023-03-23T00:10:49;10.10;99.90
17202;DHT22;8717;53.588;10.176;2023-03-23T00:13:18;10.00;99.90
17202;DHT22;8717;53.588;10.176;2023-03-23T00:15:45;10.00;99.90
17202;DHT22;8717;53.588;10.176;2023-03-23T00:18:14;10.00;99.90
17202;DHT22;8717;53.588;10.176;2023-03-23T00:20:47;10.00;99.90
17202;DHT22;8717;53.588;10.176;2023-03-23T00:23:14;9.90;99.90
17202;DHT22;8717;53.588;10.176;2023-03-23T00:25:45;9.90;99.90
17202;DHT22;8717;53.588;10.176;2023-03-23T00:28:14;9.80;99.90
17202;DHT22;8717;53.588;10.176;2023-03-23T00:30:41;9.70;99.90
17202;DHT22;8717;53.588;10.176;2023-03-23T00:33:11;9.80;99.90
17202;DHT22;8717;53.588;10.176;2023-03-23T00:35:40;9.70;99.90
17202;DHT22;8717;53.588;10.176;2023-03-23T00:38:07;9.60;99.90
17202;DHT22;8717;53.588;10.176;2023-03-23T00:40:34;9.60;99.90
17202;DHT22;8717;53.588;10.176;2023-03-23T00:43:02;9.60;99.90
17202;DHT22;8717;53.588;10.176;2023-03-23T00:45:31;9.50;99.90
17202;DHT22;8717;53.588;10.176;2023-03-23T00:48:00;9.50;99.90
17202;DHT22;8717;53.588;10.176;2023-03-23T00:50:30;9.40;99.90
17202;DHT22;8717;53.588;10.176;2023-03-23T00:52:57;9.40;99.90
17202;DHT22;8717;53.588;10.176;2023-03-23T00:55:24;9.40;99.90
17202;DHT22;8717;53.588;10.176;2023-03-23T00:57:51;9.30;99.90
17202;DHT22;8717;53.588;10.176;2023-03-23T01:00:19;9.30;99.90
17202;DHT22;8717;53.588;10.176;2023-03-23T01:02:49;9.30;99.90
17202;DHT22;8717;53.588;10.176;2023-03-23T01:05:17;9.30;99.90
17202;DHT22;8717;53.588;10.176;2023-03-23T01:07:45;9.20;99.90
17202;DHT22;8717;53.588;10.176;2023-03-23T01:10:12;9.20;99.90
17202;DHT22;8717;53.588;10.176;2023-03-23T01:12:42;9.20;99.90
17202;DHT22;8717;53.588;10.176;2023-03-23T01:15:13;9.20;99.90
17202;DHT22;8717;53.588;10.176;2023-03-23T01:17:41;9.20;99.90
17202;DHT22;8717;53.588;10.176;2023-03-23T01:20:09;9.10;99.90
17202;DHT22;8717;53.588;10.176;2023-03-23T01:22:37;9.10;99.90
17202;DHT22;8717;53.588;10.176;2023-03-23T01:25:04;9.10;99.90
17202;DHT22;8717;53.588;10.176;2023-03-23T01:27:31;9.10;99.90
17202;DHT22;8717;53.588;10.176;2023-03-23T01:29:58;9.10;99.90
17202;DHT22;8717;53.588;10.176;2023-03-23T01:32:24;9.10;99.90
17202;DHT22;8717;53.588;10.176;2023-03-23T01:34:51;9.10;99.90
17202;DHT22;8717;53.588;10.176;2023-03-23T01:37:19;9.10;99.90
17202;DHT22;8717;53.588;10.176;2023-03-23T01:39:52;9.10;99.90
17202;DHT22;8717;53.588;10.176;2023-03-23T01:42:21;9.10;99.90
17202;DHT22;8717;53.588;10.176;2023-03-23T01:47:57;9.00;99.90
17202;DHT22;8717;53.588;10.176;2023-03-23T01:50:27;9.00;99.90
17202;DHT22;8717;53.588;10.176;2023-03-23T01:52:57;9.10;99.90
17202;DHT22;8717;53.588;10.176;2023-03-23T01:55:27;9.00;99.90
17202;DHT22;8717;53.588;10.176;2023-03-23T01:57:55;9.00;99.90
17202;DHT22;8717;53.588;10.176;2023-03-23T02:00:24;9.10;99.90
17202;DHT22;8717;53.588;10.176;2023-03-23T02:02:54;9.10;99.90
17202;DHT22;8717;53.588;10.176;2023-03-23T02:05:26;9.10;99.90
17202;DHT22;8717;53.588;10.176;2023-03-23T02:07:58;9.10;99.90
17202;DHT22;8717;53.588;10.176;2023-03-23T02:10:31;9.10;99.90
17202;DHT22;8717;53.588;10.176;2023-03-23T02:13:00;9.10;99.90
17202;DHT22;8717;53.588;10.176;2023-03-23T02:15:34;9.10;99.90
17202;DHT22;8717;53.588;10.176;2023-03-23T02:18:07;9.10;99.90
17202;DHT22;8717;53.588;10.176;2023-03-23T02:20:55;9.10;99.90
17202;DHT22;8717;53.588;10.176;2023-03-23T02:23:51;9.10;99.90
17202;DHT22;8717;53.588;10.176;2023-03-23T02:26:32;9.00;99.90
17202;DHT22;8717;53.588;10.176;2023-03-23T02:29:21;9.10;99.90
17202;DHT22;8717;53.588;10.176;2023-03-23T02:32:04;9.10;99.90
17202;DHT22;8717;53.588;10.176;2023-03-23T02:34:38;9.10;99.90
17202;DHT22;8717;53.588;10.176;2023-03-23T02:37:11;9.00;99.90
17202;DHT22;8717;53.588;10.176;2023-03-23T02:39:43;9.10;99.90
17202;DHT22;8717;53.588;10.176;2023-03-23T02:42:16;9.10;99.90
17202;DHT22;8717;53.588;10.176;2023-03-23T02:44:46;9.10;99.90
17202;DHT22;8717;53.588;10.176;2023-03-23T02:47:16;9.10;99.90
17202;DHT22;8717;53.588;10.176;2023-03-23T02:49:47;9.10;99.90
17202;DHT22;8717;53.588;10.176;2023-03-23T02:52:18;9.10;99.90
17202;DHT22;8717;53.588;10.176;2023-03-23T02:54:48;9.10;99.90
17202;DHT22;8717;53.588;10.176;2023-03-23T02:57:16;9.10;99.90
17202;DHT22;8717;53.588;10.176;2023-03-23T02:59:45;9.20;99.90
17202;DHT22;8717;53.588;10.176;2023-03-23T03:02:15;9.20;99.90
17202;DHT22;8717;53.588;10.176;2023-03-23T03:04:50;9.20;99.90
17202;DHT22;8717;53.588;10.176;2023-03-23T03:07:30;9.20;99.90
17202;DHT22;8717;53.588;10.176;2023-03-23T03:10:04;9.20;99.90
17202;DHT22;8717;53.588;10.176;2023-03-23T03:12:38;9.30;99.90
17202;DHT22;8717;53.588;10.176;2023-03-23T03:15:17;9.20;99.90
17202;DHT22;8717;53.588;10.176;2023-03-23T03:17:52;9.20;99.90
17202;DHT22;8717;53.588;10.176;2023-03-23T03:20:24;9.30;99.90
17202;DHT22;8717;53.588;10.176;2023-03-23T03:22:52;9.30;99.90
17202;DHT22;8717;53.588;10.176;2023-03-23T03:25:20;9.30;99.90
17202;DHT22;8717;53.588;10.176;2023-03-23T03:27:49;9.30;99.90
17202;DHT22;8717;53.588;10.176;2023-03-23T03:30:32;9.30;99.90
17202;DHT22;8717;53.588;10.176;2023-03-23T03:33:01;9.40;99.90
17202;DHT22;8717;53.588;10.176;2023-03-23T03:35:30;9.40;99.90
17202;DHT22;8717;53.588;10.176;2023-03-23T03:38:05;9.40;99.90
17202;DHT22;8717;53.588;10.176;2023-03-23T03:40:33;9.40;99.90
17202;DHT22;8717;53.588;10.176;2023-03-23T03:43:00;9.40;99.90
17202;DHT22;8717;53.588;10.176;2023-03-23T03:45:28;9.40;99.90
17202;DHT22;8717;53.588;10.176;2023-03-23T03:47:55;9.40;99.90
17202;DHT22;8717;53.588;10.176;2023-03-23T03:50:22;9.30;99.90
17202;DHT22;8717;53.588;10.176;2023-03-23T03:52:51;9.40;99.90
17202;DHT22;8717;53.588;10.176;2023-03-23T03:55:18;9.40;99.90
17202;DHT22;8717;53.588;10.176;2023-03-23T03:57:47;9.40;99.90
17202;DHT22;8717;53.588;10.176;2023-03-23T04:00:37;9.40;99.90
17202;DHT22;8717;53.588;10.176;2023-03-23T04:03:05;9.40;99.90
17202;DHT22;8717;53.588;10.176;2023-03-23T04:05:58;9.40;99.90
17202;DHT22;8717;53.588;10.176;2023-03-23T04:08:27;9.40;99.90
17202;DHT22;8717;53.588;10.176;2023-03-23T04:10:54;9.40;99.90
17202;DHT22;8717;53.588;10.176;2023-03-23T04:13:22;9.50;99.90
17202;DHT22;8717;53.588;10.176;2023-03-23T04:16:04;9.50;99.90
17202;DHT22;8717;53.588;10.176;2023-03-23T04:18:33;9.50;99.90
17202;DHT22;8717;53.588;10.176;2023-03-23T04:21:01;9.60;99.90
17202;DHT22;8717;53.588;10.176;2023-03-23T04:23:31;9.60;99.90
17202;DHT22;8717;53.588;10.176;2023-03-23T04:26:02;9.70;99.90
17202;DHT22;8717;53.588;10.176;2023-03-23T04:28:35;9.70;99.90
17202;DHT22;8717;53.588;10.176;2023-03-23T04:31:40;9.60;99.90
17202;DHT22;8717;53.588;10.176;2023-03-23T04:34:32;9.60;99.90
17202;DHT22;8717;53.588;10.176;2023-03-23T04:37:00;9.60;99.90
17202;DHT22;8717;53.588;10.176;2023-03-23T04:39:31;9.60;99.90
17202;DHT22;8717;53.588;10.176;2023-03-23T04:42:01;9.70;99.90
17202;DHT22;8717;53.588;10.176;2023-03-23T04:44:54;9.70;99.90
17202;DHT22;8717;53.588;10.176;2023-03-23T04:47:27;9.70;99.90
17202;DHT22;8717;53.588;10.176;2023-03-23T04:49:58;9.70;99.90
17202;DHT22;8717;53.588;10.176;2023-03-23T04:52:31;9.70;99.90
17202;DHT22;8717;53.588;10.176;2023-03-23T04:55:04;9.60;99.90
17202;DHT22;8717;53.588;10.176;2023-03-23T04:57:33;9.70;99.90
17202;DHT22;8717;53.588;10.176;2023-03-23T05:00:32;9.60;99.90
17202;DHT22;8717;53.588;10.176;2023-03-23T05:03:00;9.70;99.90
17202;DHT22;8717;53.588;10.176;2023-03-23T05:05:28;9.70;99.90
17202;DHT22;8717;53.588;10.176;2023-03-23T05:07:57;9.70;99.90
17202;DHT22;8717;53.588;10.176;2023-03-23T05:10:28;9.60;99.90
17202;DHT22;8717;53.588;10.176;2023-03-23T05:13:00;9.70;99.90
17202;DHT22;8717;53.588;10.176;2023-03-23T05:15:27;9.70;99.90
17202;DHT22;8717;53.588;10.176;2023-03-23T05:17:56;9.70;99.90
17202;DHT22;8717;53.588;10.176;2023-03-23T05:20:24;9.80;99.90
17202;DHT22;8717;53.588;10.176;2023-03-23T05:23:09;9.80;99.90
17202;DHT22;8717;53.588;10.176;2023-03-23T05:25:38;9.80;99.90
17202;DHT22;8717;53.588;10.176;2023-03-23T05:28:12;9.80;99.90
17202;DHT22;8717;53.588;10.176;2023-03-23T05:30:51;9.80;99.90
17202;DHT22;8717;53.588;10.176;2023-03-23T05:33:19;9.80;99.90
17202;DHT22;8717;53.588;10.176;2023-03-23T05:36:10;9.90;99.90
17202;DHT22;8717;53.588;10.176;2023-03-23T05:38:58;9.90;99.90
17202;DHT22;8717;53.588;10.176;2023-03-23T05:41:28;9.90;99.90
17202;DHT22;8717;53.588;10.176;2023-03-23T05:43:55;10.00;99.90
17202;DHT22;8717;53.588;10.176;2023-03-23T05:46:26;10.00;99.90
17202;DHT22;8717;53.588;10.176;2023-03-23T05:48:57;10.00;99.90
17202;DHT22;8717;53.588;10.176;2023-03-23T05:51:31;10.00;99.90
17202;DHT22;8717;53.588;10.176;2023-03-23T05:53:58;10.00;99.90
17202;DHT22;8717;53.588;10.176;2023-03-23T05:56:25;10.00;99.90
17202;DHT22;8717;53.588;10.176;2023-03-23T05:59:16;10.00;99.90
17202;DHT22;8717;53.588;10.176;2023-03-23T06:01:45;10.00;99.90
17202;DHT22;8717;53.588;10.176;2023-03-23T06:04:12;10.00;99.90
17202;DHT22;8717;53.588;10.176;2023-03-23T06:06:46;10.10;99.90
17202;DHT22;8717;53.588;10.176;2023-03-23T06:09:14;10.00;99.90
17202;DHT22;8717;53.588;10.176;2023-03-23T06:12:20;10.00;99.90
17202;DHT22;8717;53.588;10.176;2023-03-23T06:14:58;10.00;99.90
17202;DHT22;8717;53.588;10.176;2023-03-23T06:17:39;10.00;99.90
17202;DHT22;8717;53.588;10.176;2023-03-23T06:20:07;10.00;99.90
17202;DHT22;8717;53.588;10.176;2023-03-23T06:22:36;9.90;99.90
17202;DHT22;8717;53.588;10.176;2023-03-23T06:25:24;9.90;99.90
17202;DHT22;8717;53.588;10.176;2023-03-23T06:27:51;9.90;99.90
17202;DHT22;8717;53.588;10.176;2023-03-23T06:30:19;9.90;99.90
17202;DHT22;8717;53.588;10.176;2023-03-23T06:32:46;9.90;99.90
17202;DHT22;8717;53.588;10.176;2023-03-23T06:35:16;9.90;99.90
17202;DHT22;8717;53.588;10.176;2023-03-23T06:38:15;9.90;99.90
17202;DHT22;8717;53.588;10.176;2023-03-23T06:40:52;9.90;99.90
17202;DHT22;8717;53.588;10.176;2023-03-23T06:43:20;9.90;99.90
17202;DHT22;8717;53.588;10.176;2023-03-23T06:45:59;9.90;99.90
17202;DHT22;8717;53.588;10.176;2023-03-23T06:48:27;9.90;99.90
17202;DHT22;8717;53.588;10.176;2023-03-23T06:50:53;10.00;99.90
17202;DHT22;8717;53.588;10.176;2023-03-23T06:53:23;9.90;99.90
17202;DHT22;8717;53.588;10.176;2023-03-23T06:55:53;10.00;99.90
17202;DHT22;8717;53.588;10.176;2023-03-23T06:58:19;10.00;99.90
17202;DHT22;8717;53.588;10.176;2023-03-23T07:00:53;10.00;99.90
17202;DHT22;8717;53.588;10.176;2023-03-23T07:03:22;10.10;99.90
17202;DHT22;8717;53.588;10.176;2023-03-23T07:05:48;10.10;99.90
17202;DHT22;8717;53.588;10.176;2023-03-23T07:08:17;10.20;99.90
17202;DHT22;8717;53.588;10.176;2023-03-23T07:10:50;10.10;99.90
17202;DHT22;8717;53.588;10.176;2023-03-23T07:13:17;10.20;99.90
17202;DHT22;8717;53.588;10.176;2023-03-23T07:15:49;10.30;99.90
17202;DHT22;8717;53.588;10.176;2023-03-23T07:18:17;10.30;99.90
17202;DHT22;8717;53.588;10.176;2023-03-23T07:20:49;10.50;99.90
17202;DHT22;8717;53.588;10.176;2023-03-23T07:23:16;10.50;99.90
17202;DHT22;8717;53.588;10.176;2023-03-23T07:25:49;10.60;99.90
17202;DHT22;8717;53.588;10.176;2023-03-23T07:28:21;10.70;99.90
17202;DHT22;8717;53.588;10.176;2023-03-23T07:30:51;10.90;99.90
17202;DHT22;8717;53.588;10.176;2023-03-23T07:33:18;10.90;99.90
17202;DHT22;8717;53.588;10.176;2023-03-23T07:35:45;11.00;99.90
17202;DHT22;8717;53.588;10.176;2023-03-23T07:38:16;11.10;99.90
17202;DHT22;8717;53.588;10.176;2023-03-23T07:40:47;11.10;99.90
17202;DHT22;8717;53.588;10.176;2023-03-23T07:43:16;11.20;99.90
17202;DHT22;8717;53.588;10.176;2023-03-23T07:46:01;11.20;99.90
17202;DHT22;8717;53.588;10.176;2023-03-23T07:48:37;11.30;99.90
17202;DHT22;8717;53.588;10.176;2023-03-23T07:51:05;11.30;99.90
17202;DHT22;8717;53.588;10.176;2023-03-23T07:53:34;11.40;99.90
17202;DHT22;8717;53.588;10.176;2023-03-23T07:56:14;11.50;99.90
17202;DHT22;8717;53.588;10.176;2023-03-23T07:58:49;11.50;99.90
17202;DHT22;8717;53.588;10.176;2023-03-23T08:01:17;11.50;99.90
17202;DHT22;8717;53.588;10.176;2023-03-23T08:03:56;11.60;99.90
17202;DHT22;8717;53.588;10.176;2023-03-23T08:06:36;11.60;99.90
17202;DHT22;8717;53.588;10.176;2023-03-23T08:09:17;11.60;99.90
17202;DHT22;8717;53.588;10.176;2023-03-23T08:11:50;11.60;99.90
17202;DHT22;8717;53.588;10.176;2023-03-23T08:14:36;11.50;99.90
17202;DHT22;8717;53.588;10.176;2023-03-23T08:17:26;11.50;99.90
17202;DHT22;8717;53.588;10.176;2023-03-23T08:20:17;11.50;99.90
17202;DHT22;8717;53.588;10.176;2023-03-23T08:22:56;11.50;99.90
17202;DHT22;8717;53.588;10.176;2023-03-23T08:25:45;11.50;99.90
17202;DHT22;8717;53.588;10.176;2023-03-23T08:28:33;11.60;99.90
17202;DHT22;8717;53.588;10.176;2023-03-23T08:31:26;11.50;99.90
17202;DHT22;8717;53.588;10.176;2023-03-23T08:34:07;11.50;99.90
17202;DHT22;8717;53.588;10.176;2023-03-23T08:36:45;11.50;99.90
17202;DHT22;8717;53.588;10.176;2023-03-23T08:39:34;11.50;99.90
17202;DHT22;8717;53.588;10.176;2023-03-23T08:42:13;11.40;99.90
17202;DHT22;8717;53.588;10.176;2023-03-23T08:45:06;11.40;99.90
17202;DHT22;8717;53.588;10.176;2023-03-23T08:48:05;11.20;99.90
17202;DHT22;8717;53.588;10.176;2023-03-23T08:50:33;11.20;99.90
17202;DHT22;8717;53.588;10.176;2023-03-23T08:53:11;11.00;99.90
17202;DHT22;8717;53.588;10.176;2023-03-23T08:55:44;10.90;99.90
17202;DHT22;8717;53.588;10.176;2023-03-23T08:58:24;10.80;99.90
17202;DHT22;8717;53.588;10.176;2023-03-23T09:01:16;10.80;99.90
17202;DHT22;8717;53.588;10.176;2023-03-23T09:03:43;10.70;99.90
17202;DHT22;8717;53.588;10.176;2023-03-23T09:06:33;10.80;99.90
17202;DHT22;8717;53.588;10.176;2023-03-23T09:09:00;10.80;99.90
17202;DHT22;8717;53.588;10.176;2023-03-23T09:11:32;10.90;99.90
17202;DHT22;8717;53.588;10.176;2023-03-23T09:14:00;11.00;99.90
17202;DHT22;8717;53.588;10.176;2023-03-23T09:16:27;11.10;99.90
17202;DHT22;8717;53.588;10.176;2023-03-23T09:18:54;11.30;99.90
17202;DHT22;8717;53.588;10.176;2023-03-23T09:21:22;11.50;99.90
17202;DHT22;8717;53.588;10.176;2023-03-23T09:23:49;11.70;99.90
17202;DHT22;8717;53.588;10.176;2023-03-23T09:26:17;11.90;99.90
17202;DHT22;8717;53.588;10.176;2023-03-23T09:28:43;12.00;99.90
17202;DHT22;8717;53.588;10.176;2023-03-23T09:31:12;12.20;99.90
17202;DHT22;8717;53.588;10.176;2023-03-23T09:33:39;12.20;99.90
17202;DHT22;8717;53.588;10.176;2023-03-23T09:36:07;12.20;99.90
17202;DHT22;8717;53.588;10.176;2023-03-23T09:38:38;12.20;99.90
17202;DHT22;8717;53.588;10.176;2023-03-23T09:41:19;12.10;99.90
17202;DHT22;8717;53.588;10.176;2023-03-23T09:43:58;12.10;99.90
17202;DHT22;8717;53.588;10.176;2023-03-23T09:46:38;12.00;99.90
17202;DHT22;8717;53.588;10.176;2023-03-23T09:49:11;12.00;99.90
17202;DHT22;8717;53.588;10.176;2023-03-23T09:51:42;12.00;99.90
17202;DHT22;8717;53.588;10.176;2023-03-23T09:54:14;11.90;99.90
17202;DHT22;8717;53.588;10.176;2023-03-23T09:56:44;11.90;99.90
17202;DHT22;8717;53.588;10.176;2023-03-23T09:59:16;11.90;99.90
17202;DHT22;8717;53.588;10.176;2023-03-23T10:01:48;12.00;99.90
17202;DHT22;8717;53.588;10.176;2023-03-23T10:04:25;12.20;99.90
17202;DHT22;8717;53.588;10.176;2023-03-23T10:06:52;12.40;99.90
17202;DHT22;8717;53.588;10.176;2023-03-23T10:09:19;12.60;99.90
17202;DHT22;8717;53.588;10.176;2023-03-23T10:11:54;12.90;99.90
17202;DHT22;8717;53.588;10.176;2023-03-23T10:14:33;13.20;99.90
17202;DHT22;8717;53.588;10.176;2023-03-23T10:17:10;13.40;99.90
17202;DHT22;8717;53.588;10.176;2023-03-23T10:19:46;13.50;99.90
17202;DHT22;8717;53.588;10.176;2023-03-23T10:22:16;13.60;99.90
17202;DHT22;8717;53.588;10.176;2023-03-23T10:24:50;13.60;99.90
17202;DHT22;8717;53.588;10.176;2023-03-23T10:27:22;13.50;99.90
17202;DHT22;8717;53.588;10.176;2023-03-23T10:29:55;13.50;99.90
17202;DHT22;8717;53.588;10.176;2023-03-23T10:32:39;13.60;99.90
17202;DHT22;8717;53.588;10.176;2023-03-23T10:35:11;13.70;99.90
17202;DHT22;8717;53.588;10.176;2023-03-23T10:37:41;13.70;99.90
17202;DHT22;8717;53.588;10.176;2023-03-23T10:40:13;13.80;99.90
17202;DHT22;8717;53.588;10.176;2023-03-23T10:42:41;13.70;99.90
17202;DHT22;8717;53.588;10.176;2023-03-23T10:45:16;13.70;99.90
17202;DHT22;8717;53.588;10.176;2023-03-23T10:47:49;13.70;99.90
17202;DHT22;8717;53.588;10.176;2023-03-23T10:50:21;13.70;99.90
17202;DHT22;8717;53.588;10.176;2023-03-23T10:52:50;13.60;99.90
17202;DHT22;8717;53.588;10.176;2023-03-23T10:55:20;13.60;99.90
17202;DHT22;8717;53.588;10.176;2023-03-23T10:57:59;13.50;99.90
17202;DHT22;8717;53.588;10.176;2023-03-23T11:00:28;13.40;99.90
17202;DHT22;8717;53.588;10.176;2023-03-23T11:03:00;13.40;99.90
17202;DHT22;8717;53.588;10.176;2023-03-23T11:05:37;13.30;99.90
17202;DHT22;8717;53.588;10.176;2023-03-23T11:08:11;13.30;99.90
17202;DHT22;8717;53.588;10.176;2023-03-23T11:10:40;13.20;99.90
17202;DHT22;8717;53.588;10.176;2023-03-23T11:13:12;13.20;99.90
17202;DHT22;8717;53.588;10.176;2023-03-23T11:15:41;13.30;99.90
17202;DHT22;8717;53.588;10.176;2023-03-23T11:18:11;13.30;99.90
17202;DHT22;8717;53.588;10.176;2023-03-23T11:20:40;13.30;99.90
17202;DHT22;8717;53.588;10.176;2023-03-23T11:23:10;13.40;99.90
17202;DHT22;8717;53.588;10.176;2023-03-23T11:25:57;13.40;99.90
17202;DHT22;8717;53.588;10.176;2023-03-23T11:28:30;13.40;99.90
17202;DHT22;8717;53.588;10.176;2023-03-23T11:30:59;13.50;99.90
17202;DHT22;8717;53.588;10.176;2023-03-23T11:33:30;13.60;99.90
17202;DHT22;8717;53.588;10.176;2023-03-23T11:36:02;13.60;99.90
17202;DHT22;8717;53.588;10.176;2023-03-23T11:38:29;13.70;99.90
17202;DHT22;8717;53.588;10.176;2023-03-23T11:40:55;13.70;99.90
17202;DHT22;8717;53.588;10.176;2023-03-23T11:43:25;13.70;99.90
17202;DHT22;8717;53.588;10.176;2023-03-23T11:46:01;13.70;99.90
17202;DHT22;8717;53.588;10.176;2023-03-23T11:48:35;13.70;99.90
17202;DHT22;8717;53.588;10.176;2023-03-23T11:51:08;13.80;99.90
17202;DHT22;8717;53.588;10.176;2023-03-23T11:53:45;13.90;99.90
17202;DHT22;8717;53.588;10.176;2023-03-23T11:56:19;13.90;99.90
17202;DHT22;8717;53.588;10.176;2023-03-23T11:58:49;14.00;99.90
17202;DHT22;8717;53.588;10.176;2023-03-23T12:01:24;14.10;99.90
17202;DHT22;8717;53.588;10.176;2023-03-23T12:10:01;14.20;99.90
17202;DHT22;8717;53.588;10.176;2023-03-23T12:12:35;14.10;99.90
17202;DHT22;8717;53.588;10.176;2023-03-23T12:15:11;14.00;99.90
17202;DHT22;8717;53.588;10.176;2023-03-23T12:17:47;13.90;99.90
17202;DHT22;8717;53.588;10.176;2023-03-23T12:20:30;13.90;99.90
17202;DHT22;8717;53.588;10.176;2023-03-23T12:23:08;13.80;99.90
17202;DHT22;8717;53.588;10.176;2023-03-23T12:25:55;13.80;99.90
17202;DHT22;8717;53.588;10.176;2023-03-23T12:28:33;13.70;99.90
17202;DHT22;8717;53.588;10.176;2023-03-23T12:31:07;13.60;99.90
17202;DHT22;8717;53.588;10.176;2023-03-23T12:33:45;13.40;99.90
17202;DHT22;8717;53.588;10.176;2023-03-23T12:36:24;13.30;99.90
17202;DHT22;8717;53.588;10.176;2023-03-23T12:39:05;13.10;99.90
17202;DHT22;8717;53.588;10.176;2023-03-23T12:41:41;13.00;99.90
17202;DHT22;8717;53.588;10.176;2023-03-23T12:44:12;12.80;99.90
17202;DHT22;8717;53.588;10.176;2023-03-23T12:46:55;12.70;99.90
17202;DHT22;8717;53.588;10.176;2023-03-23T12:49:29;12.60;99.90
17202;DHT22;8717;53.588;10.176;2023-03-23T12:51:59;12.60;99.90
17202;DHT22;8717;53.588;10.176;2023-03-23T12:54:32;12.50;99.90
17202;DHT22;8717;53.588;10.176;2023-03-23T12:57:04;12.50;99.90
17202;DHT22;8717;53.588;10.176;2023-03-23T12:59:39;12.40;99.90
17202;DHT22;8717;53.588;10.176;2023-03-23T13:02:16;12.40;99.90
17202;DHT22;8717;53.588;10.176;2023-03-23T13:04:46;12.20;99.90
17202;DHT22;8717;53.588;10.176;2023-03-23T13:07:18;12.20;99.90
17202;DHT22;8717;53.588;10.176;2023-03-23T13:09:53;12.10;99.90
17202;DHT22;8717;53.588;10.176;2023-03-23T13:12:22;12.10;99.90
17202;DHT22;8717;53.588;10.176;2023-03-23T13:15:02;12.10;99.90
17202;DHT22;8717;53.588;10.176;2023-03-23T13:17:43;12.30;99.90
17202;DHT22;8717;53.588;10.176;2023-03-23T13:20:38;12.50;99.90
17202;DHT22;8717;53.588;10.176;2023-03-23T13:23:11;12.70;99.90
17202;DHT22;8717;53.588;10.176;2023-03-23T13:25:48;13.00;99.90
17202;DHT22;8717;53.588;10.176;2023-03-23T13:28:17;13.10;99.90
17202;DHT22;8717;53.588;10.176;2023-03-23T13:30:58;13.30;99.90
17202;DHT22;8717;53.588;10.176;2023-03-23T13:33:26;13.40;99.90
17202;DHT22;8717;53.588;10.176;2023-03-23T13:35:55;13.40;99.90
17202;DHT22;8717;53.588;10.176;2023-03-23T13:38:24;13.50;99.90
17202;DHT22;8717;53.588;10.176;2023-03-23T13:40:53;13.60;99.90
17202;DHT22;8717;53.588;10.176;2023-03-23T13:43:28;13.60;99.90
17202;DHT22;8717;53.588;10.176;2023-03-23T13:46:07;13.60;99.90
17202;DHT22;8717;53.588;10.176;2023-03-23T13:48:42;13.60;99.90
17202;DHT22;8717;53.588;10.176;2023-03-23T13:51:25;13.60;99.90
17202;DHT22;8717;53.588;10.176;2023-03-23T13:54:06;13.60;99.90
17202;DHT22;8717;53.588;10.176;2023-03-23T13:56:40;13.60;99.90
17202;DHT22;8717;53.588;10.176;2023-03-23T13:59:12;13.60;99.90
17202;DHT22;8717;53.588;10.176;2023-03-23T14:01:40;13.70;99.90
17202;DHT22;8717;53.588;10.176;2023-03-23T14:04:12;13.70;99.90
17202;DHT22;8717;53.588;10.176;2023-03-23T14:06:40;13.70;99.90
17202;DHT22;8717;53.588;10.176;2023-03-23T14:09:15;13.70;99.90
17202;DHT22;8717;53.588;10.176;2023-03-23T14:11:50;13.70;99.90
17202;DHT22;8717;53.588;10.176;2023-03-23T14:14:25;13.70;99.90
17202;DHT22;8717;53.588;10.176;2023-03-23T14:17:05;13.60;99.90
17202;DHT22;8717;53.588;10.176;2023-03-23T14:19:33;13.50;99.90
17202;DHT22;8717;53.588;10.176;2023-03-23T14:22:03;13.40;99.90
17202;DHT22;8717;53.588;10.176;2023-03-23T14:24:31;13.10;99.90
17202;DHT22;8717;53.588;10.176;2023-03-23T14:27:09;12.80;99.90
17202;DHT22;8717;53.588;10.176;2023-03-23T14:29:36;12.40;99.90
17202;DHT22;8717;53.588;10.176;2023-03-23T14:32:06;12.00;99.90
17202;DHT22;8717;53.588;10.176;2023-03-23T14:34:34;11.60;99.90
17202;DHT22;8717;53.588;10.176;2023-03-23T14:37:02;11.30;99.90
17202;DHT22;8717;53.588;10.176;2023-03-23T14:39:30;11.00;99.90
17202;DHT22;8717;53.588;10.176;2023-03-23T14:42:03;10.80;99.90
17202;DHT22;8717;53.588;10.176;2023-03-23T14:44:34;10.60;99.90
17202;DHT22;8717;53.588;10.176;2023-03-23T14:47:03;10.60;99.90
17202;DHT22;8717;53.588;10.176;2023-03-23T14:49:32;10.60;99.90
17202;DHT22;8717;53.588;10.176;2023-03-23T14:52:04;10.60;99.90
17202;DHT22;8717;53.588;10.176;2023-03-23T14:54:35;10.70;99.90
17202;DHT22;8717;53.588;10.176;2023-03-23T14:57:11;10.80;99.90
17202;DHT22;8717;53.588;10.176;2023-03-23T14:59:40;10.90;99.90
17202;DHT22;8717;53.588;10.176;2023-03-23T15:02:11;11.00;99.90
17202;DHT22;8717;53.588;10.176;2023-03-23T15:04:39;11.10;99.90
17202;DHT22;8717;53.588;10.176;2023-03-23T15:07:08;11.10;99.90
17202;DHT22;8717;53.588;10.176;2023-03-23T15:09:39;11.20;99.90
17202;DHT22;8717;53.588;10.176;2023-03-23T15:12:19;11.20;99.90
17202;DHT22;8717;53.588;10.176;2023-03-23T15:14:47;11.30;99.90
17202;DHT22;8717;53.588;10.176;2023-03-23T15:17:19;11.40;99.90
17202;DHT22;8717;53.588;10.176;2023-03-23T15:19:46;11.50;99.90
17202;DHT22;8717;53.588;10.176;2023-03-23T15:22:18;11.40;99.90
17202;DHT22;8717;53.588;10.176;2023-03-23T15:24:45;11.50;99.90
17202;DHT22;8717;53.588;10.176;2023-03-23T15:27:16;11.50;99.90
17202;DHT22;8717;53.588;10.176;2023-03-23T15:29:51;11.50;99.90
17202;DHT22;8717;53.588;10.176;2023-03-23T15:32:26;11.60;99.90
17202;DHT22;8717;53.588;10.176;2023-03-23T15:34:54;11.60;99.90
17202;DHT22;8717;53.588;10.176;2023-03-23T15:37:26;11.60;99.90
17202;DHT22;8717;53.588;10.176;2023-03-23T15:39:54;11.60;99.90
17202;DHT22;8717;53.588;10.176;2023-03-23T15:42:25;11.50;99.90
17202;DHT22;8717;53.588;10.176;2023-03-23T15:44:57;11.50;99.90
17202;DHT22;8717;53.588;10.176;2023-03-23T15:47:35;11.50;99.90
17202;DHT22;8717;53.588;10.176;2023-03-23T15:50:08;11.50;99.90
17202;DHT22;8717;53.588;10.176;2023-03-23T15:52:36;11.50;99.90
17202;DHT22;8717;53.588;10.176;2023-03-23T15:55:03;11.50;99.90
17202;DHT22;8717;53.588;10.176;2023-03-23T15:57:31;11.50;99.90
17202;DHT22;8717;53.588;10.176;2023-03-23T15:59:58;11.50;99.90
17202;DHT22;8717;53.588;10.176;2023-03-23T16:02:24;11.60;99.90
17202;DHT22;8717;53.588;10.176;2023-03-23T16:04:51;11.60;99.90
17202;DHT22;8717;53.588;10.176;2023-03-23T16:07:21;11.70;99.90
17202;DHT22;8717;53.588;10.176;2023-03-23T16:09:48;11.70;99.90
17202;DHT22;8717;53.588;10.176;2023-03-23T16:12:15;11.70;99.90
17202;DHT22;8717;53.588;10.176;2023-03-23T16:14:43;11.70;99.90
17202;DHT22;8717;53.588;10.176;2023-03-23T16:17:11;11.70;99.90
17202;DHT22;8717;53.588;10.176;2023-03-23T16:19:40;11.70;99.90
17202;DHT22;8717;53.588;10.176;2023-03-23T16:22:07;11.70;99.90